sensor_id;sensor_type;location;lat;lon;timestamp;pressure;altitude;pressure_sealevel;temperature;humidity
44934;BME280;30667;43.614;1.442;2022-11-23T00:00:25;98894.72;;;8.58;100.00
44934;BME280;30667;43.614;1.442;2022-11-23T00:02:57;98887.16;;;8.60;100.00
44934;BME280;30667;43.614;1.442;2022-11-23T00:05:23;98893.34;;;8.61;100.00
44934;BME280;30667;43.614;1.442;2022-11-23T00:07:48;98866.41;;;8.61;100.00
44934;BME280;30667;43.614;1.442;2022-11-23T00:10:14;98881.50;;;8.62;100.00
44934;BME280;30667;43.614;1.442;2022-11-23T00:12:40;98873.69;;;8.60;100.00
44934;BME280;30667;43.614;1.442;2022-11-23T00:15:06;98874.28;;;8.57;100.00
44934;BME280;30667;43.614;1.442;2022-11-23T00:17:32;98865.66;;;8.55;100.00
44934;BME280;30667;43.614;1.442;2022-11-23T00:19:58;98864.56;;;8.56;100.00
44934;BME280;30667;43.614;1.442;2022-11-23T00:22:23;98852.13;;;8.60;100.00
44934;BME280;30667;43.614;1.442;2022-11-23T00:24:48;98852.91;;;8.61;100.00
44934;BME280;30667;43.614;1.442;2022-11-23T00:27:14;98844.31;;;8.59;100.00
44934;BME280;30667;43.614;1.442;2022-11-23T00:29:40;98854.81;;;8.60;100.00
44934;BME280;30667;43.614;1.442;2022-11-23T00:32:05;98859.34;;;8.65;100.00
44934;BME280;30667;43.614;1.442;2022-11-23T00:34:30;98851.53;;;8.63;100.00
44934;BME280;30667;43.614;1.442;2022-11-23T00:36:56;98849.56;;;8.69;100.00
44934;BME280;30667;43.614;1.442;2022-11-23T00:39:21;98843.38;;;8.68;100.00
44934;BME280;30667;43.614;1.442;2022-11-23T00:41:47;98830.59;;;8.74;100.00
44934;BME280;30667;43.614;1.442;2022-11-23T00:44:12;98820.91;;;8.73;100.00
44934;BME280;30667;43.614;1.442;2022-11-23T00:46:37;98812.44;;;8.80;100.00
44934;BME280;30667;43.614;1.442;2022-11-23T00:49:03;98834.09;;;8.75;100.00
44934;BME280;30667;43.614;1.442;2022-11-23T00:51:30;98839.41;;;8.80;100.00
44934;BME280;30667;43.614;1.442;2022-11-23T00:53:57;98849.09;;;8.81;100.00
44934;BME280;30667;43.614;1.442;2022-11-23T00:56:24;98839.63;;;8.83;100.00
44934;BME280;30667;43.614;1.442;2022-11-23T00:58:51;98829.41;;;8.80;100.00
44934;BME280;30667;43.614;1.442;2022-11-23T01:01:19;98825.91;;;8.80;100.00
44934;BME280;30667;43.614;1.442;2022-11-23T01:03:48;98824.00;;;8.80;100.00
44934;BME280;30667;43.614;1.442;2022-11-23T01:06:16;98829.31;;;8.85;100.00
44934;BME280;30667;43.614;1.442;2022-11-23T01:08:47;98830.72;;;8.83;100.00
44934;BME280;30667;43.614;1.442;2022-11-23T01:11:13;98831.31;;;8.80;100.00
44934;BME280;30667;43.614;1.442;2022-11-23T01:13:39;98828.81;;;8.83;100.00
44934;BME280;30667;43.614;1.442;2022-11-23T01:16:20;98807.25;;;8.83;100.00
44934;BME280;30667;43.614;1.442;2022-11-23T01:18:46;98808.03;;;8.84;100.00
44934;BME280;30667;43.614;1.442;2022-11-23T01:21:12;98790.47;;;8.86;100.00
44934;BME280;30667;43.614;1.442;2022-11-23T01:23:37;98794.25;;;8.85;100.00
44934;BME280;30667;43.614;1.442;2022-11-23T01:26:07;98777.28;;;8.85;100.00
44934;BME280;30667;43.614;1.442;2022-11-23T01:28:34;98765.81;;;8.93;100.00
44934;BME280;30667;43.614;1.442;2022-11-23T01:33:29;98775.50;;;8.94;100.00
44934;BME280;30667;43.614;1.442;2022-11-23T01:35:55;98782.28;;;8.91;100.00
44934;BME280;30667;43.614;1.442;2022-11-23T01:38:20;98761.13;;;8.99;100.00
44934;BME280;30667;43.614;1.442;2022-11-23T01:40:45;98760.31;;;8.98;100.00
44934;BME280;30667;43.614;1.442;2022-11-23T01:43:16;98767.63;;;8.98;100.00
44934;BME280;30667;43.614;1.442;2022-11-23T01:45:52;98771.09;;;8.98;100.00
44934;BME280;30667;43.614;1.442;2022-11-23T01:48:24;98749.44;;;9.03;100.00
44934;BME280;30667;43.614;1.442;2022-11-23T01:50:52;98762.94;;;9.03;100.00
44934;BME280;30667;43.614;1.442;2022-11-23T01:53:18;98762.34;;;9.06;100.00
44934;BME280;30667;43.614;1.442;2022-11-23T01:55:46;98756.94;;;9.06;100.00
44934;BME280;30667;43.614;1.442;2022-11-23T01:58:15;98749.34;;;9.08;100.00
44934;BME280;30667;43.614;1.442;2022-11-23T02:00:42;98758.22;;;9.09;100.00
44934;BME280;30667;43.614;1.442;2022-11-23T02:03:09;98761.75;;;9.09;100.00
44934;BME280;30667;43.614;1.442;2022-11-23T02:05:38;98757.94;;;9.11;100.00
44934;BME280;30667;43.614;1.442;2022-11-23T02:08:06;98745.25;;;9.11;100.00
44934;BME280;30667;43.614;1.442;2022-11-23T02:10:33;98732.56;;;9.12;100.00
44934;BME280;30667;43.614;1.442;2022-11-23T02:13:05;98729.06;;;9.11;100.00
44934;BME280;30667;43.614;1.442;2022-11-23T02:15:31;98724.75;;;9.10;100.00
44934;BME280;30667;43.614;1.442;2022-11-23T02:17:58;98745.56;;;9.09;100.00
44934;BME280;30667;43.614;1.442;2022-11-23T02:20:25;98751.75;;;9.10;100.00
44934;BME280;30667;43.614;1.442;2022-11-23T02:23:07;98776.81;;;9.11;100.00
44934;BME280;30667;43.614;1.442;2022-11-23T02:28:15;98804.81;;;9.15;100.00
44934;BME280;30667;43.614;1.442;2022-11-23T02:30:44;98801.81;;;9.16;100.00
44934;BME280;30667;43.614;1.442;2022-11-23T02:33:11;98807.41;;;9.20;100.00
44934;BME280;30667;43.614;1.442;2022-11-23T02:35:47;98795.25;;;9.22;100.00
44934;BME280;30667;43.614;1.442;2022-11-23T02:38:13;98786.31;;;9.22;100.00
44934;BME280;30667;43.614;1.442;2022-11-23T02:40:39;98775.22;;;9.23;100.00
44934;BME280;30667;43.614;1.442;2022-11-23T02:43:04;98766.66;;;9.21;100.00
44934;BME280;30667;43.614;1.442;2022-11-23T02:45:49;98757.47;;;9.22;100.00
44934;BME280;30667;43.614;1.442;2022-11-23T02:48:16;98754.75;;;9.22;100.00
44934;BME280;30667;43.614;1.442;2022-11-23T02:50:42;98749.06;;;9.24;100.00
44934;BME280;30667;43.614;1.442;2022-11-23T02:53:08;98744.44;;;9.24;100.00
44934;BME280;30667;43.614;1.442;2022-11-23T02:55:33;98739.06;;;9.24;100.00
44934;BME280;30667;43.614;1.442;2022-11-23T02:57:59;98722.88;;;9.24;100.00
44934;BME280;30667;43.614;1.442;2022-11-23T03:00:24;98718.56;;;9.23;100.00
44934;BME280;30667;43.614;1.442;2022-11-23T03:02:50;98725.25;;;9.26;100.00
44934;BME280;30667;43.614;1.442;2022-11-23T03:05:15;98727.38;;;9.29;100.00
44934;BME280;30667;43.614;1.442;2022-11-23T03:07:41;98731.97;;;9.29;100.00
44934;BME280;30667;43.614;1.442;2022-11-23T03:10:06;98750.03;;;9.28;100.00
44934;BME280;30667;43.614;1.442;2022-11-23T03:12:32;98757.84;;;9.30;100.00
44934;BME280;30667;43.614;1.442;2022-11-23T03:14:57;98759.47;;;9.31;100.00
44934;BME280;30667;43.614;1.442;2022-11-23T03:17:23;98742.13;;;9.32;100.00
44934;BME280;30667;43.614;1.442;2022-11-23T03:19:48;98724.84;;;9.33;100.00
44934;BME280;30667;43.614;1.442;2022-11-23T03:22:14;98726.16;;;9.35;100.00
44934;BME280;30667;43.614;1.442;2022-11-23T03:24:39;98722.34;;;9.36;100.00
44934;BME280;30667;43.614;1.442;2022-11-23T03:27:05;98734.75;;;9.37;100.00
44934;BME280;30667;43.614;1.442;2022-11-23T03:29:30;98734.75;;;9.37;100.00
44934;BME280;30667;43.614;1.442;2022-11-23T03:31:55;98726.34;;;9.39;100.00
44934;BME280;30667;43.614;1.442;2022-11-23T03:34:21;98726.66;;;9.37;100.00
44934;BME280;30667;43.614;1.442;2022-11-23T03:36:47;98736.38;;;9.38;100.00
44934;BME280;30667;43.614;1.442;2022-11-23T03:39:12;98725.75;;;9.42;100.00
44934;BME280;30667;43.614;1.442;2022-11-23T03:41:38;98717.34;;;9.43;100.00
44934;BME280;30667;43.614;1.442;2022-11-23T03:44:03;98711.97;;;9.43;100.00
44934;BME280;30667;43.614;1.442;2022-11-23T03:46:29;98715.44;;;9.44;100.00
44934;BME280;30667;43.614;1.442;2022-11-23T03:48:54;98722.44;;;9.45;100.00
44934;BME280;30667;43.614;1.442;2022-11-23T03:51:20;98723.84;;;9.42;100.00
44934;BME280;30667;43.614;1.442;2022-11-23T03:53:45;98714.97;;;9.42;100.00
44934;BME280;30667;43.614;1.442;2022-11-23T03:56:11;98717.34;;;9.43;100.00
44934;BME280;30667;43.614;1.442;2022-11-23T03:58:36;98719.75;;;9.45;100.00
44934;BME280;30667;43.614;1.442;2022-11-23T04:01:02;98721.97;;;9.43;100.00
44934;BME280;30667;43.614;1.442;2022-11-23T04:03:27;98737.03;;;9.44;100.00
44934;BME280;30667;43.614;1.442;2022-11-23T04:05:52;98738.16;;;9.43;100.00
44934;BME280;30667;43.614;1.442;2022-11-23T04:08:18;98740.88;;;9.43;100.00
44934;BME280;30667;43.614;1.442;2022-11-23T04:10:43;98743.25;;;9.44;100.00
44934;BME280;30667;43.614;1.442;2022-11-23T04:13:09;98749.94;;;9.47;100.00
44934;BME280;30667;43.614;1.442;2022-11-23T04:15:34;98749.94;;;9.47;100.00
44934;BME280;30667;43.614;1.442;2022-11-23T04:17:59;98735.94;;;9.45;100.00
44934;BME280;30667;43.614;1.442;2022-11-23T04:20:25;98735.66;;;9.47;100.00
44934;BME280;30667;43.614;1.442;2022-11-23T04:22:50;98742.63;;;9.48;100.00
44934;BME280;30667;43.614;1.442;2022-11-23T04:25:16;98746.63;;;9.50;100.00
44934;BME280;30667;43.614;1.442;2022-11-23T04:27:41;98746.94;;;9.49;100.00
44934;BME280;30667;43.614;1.442;2022-11-23T04:30:08;98738.72;;;9.54;100.00
44934;BME280;30667;43.614;1.442;2022-11-23T04:32:33;98729.34;;;9.51;100.00
44934;BME280;30667;43.614;1.442;2022-11-23T04:34:59;98727.75;;;9.50;100.00
44934;BME280;30667;43.614;1.442;2022-11-23T04:37:25;98725.53;;;9.52;100.00
44934;BME280;30667;43.614;1.442;2022-11-23T04:39:51;98730.13;;;9.52;100.00
44934;BME280;30667;43.614;1.442;2022-11-23T04:42:16;98733.63;;;9.52;100.00
44934;BME280;30667;43.614;1.442;2022-11-23T04:44:41;98724.94;;;9.55;100.00
44934;BME280;30667;43.614;1.442;2022-11-23T04:47:09;98720.34;;;9.56;100.00
44934;BME280;30667;43.614;1.442;2022-11-23T04:49:34;98717.94;;;9.54;100.00
44934;BME280;30667;43.614;1.442;2022-11-23T04:52:00;98712.25;;;9.56;100.00
44934;BME280;30667;43.614;1.442;2022-11-23T04:54:25;98713.03;;;9.56;100.00
44934;BME280;30667;43.614;1.442;2022-11-23T04:56:51;98717.66;;;9.56;100.00
44934;BME280;30667;43.614;1.442;2022-11-23T04:59:18;98720.34;;;9.56;100.00
44934;BME280;30667;43.614;1.442;2022-11-23T05:01:44;98717.66;;;9.56;100.00
44934;BME280;30667;43.614;1.442;2022-11-23T05:04:10;98716.81;;;9.55;100.00
44934;BME280;30667;43.614;1.442;2022-11-23T05:06:35;98716.53;;;9.57;100.00
44934;BME280;30667;43.614;1.442;2022-11-23T05:09:01;98727.84;;;9.59;100.00
44934;BME280;30667;43.614;1.442;2022-11-23T05:11:26;98723.53;;;9.58;100.00
44934;BME280;30667;43.614;1.442;2022-11-23T05:13:51;98726.72;;;9.60;100.00
44934;BME280;30667;43.614;1.442;2022-11-23T05:16:17;98729.91;;;9.62;100.00
44934;BME280;30667;43.614;1.442;2022-11-23T05:18:42;98736.72;;;9.59;100.00
44934;BME280;30667;43.614;1.442;2022-11-23T05:21:08;98740.22;;;9.60;100.00
44934;BME280;30667;43.614;1.442;2022-11-23T05:23:33;98738.00;;;9.62;100.00
44934;BME280;30667;43.614;1.442;2022-11-23T05:25:58;98738.66;;;9.59;100.00
44934;BME280;30667;43.614;1.442;2022-11-23T05:28:24;98743.72;;;9.60;100.00
44934;BME280;30667;43.614;1.442;2022-11-23T05:30:49;98731.34;;;9.59;100.00
44934;BME280;30667;43.614;1.442;2022-11-23T05:33:15;98739.91;;;9.61;100.00
44934;BME280;30667;43.614;1.442;2022-11-23T05:35:40;98746.13;;;9.62;100.00
44934;BME280;30667;43.614;1.442;2022-11-23T05:38:06;98740.41;;;9.63;100.00
44934;BME280;30667;43.614;1.442;2022-11-23T05:40:31;98748.50;;;9.63;100.00
44934;BME280;30667;43.614;1.442;2022-11-23T05:42:57;98746.63;;;9.64;100.00
44934;BME280;30667;43.614;1.442;2022-11-23T05:45:24;98742.03;;;9.64;100.00
44934;BME280;30667;43.614;1.442;2022-11-23T05:47:54;98749.81;;;9.66;100.00
44934;BME280;30667;43.614;1.442;2022-11-23T05:50:21;98750.81;;;9.70;100.00
44934;BME280;30667;43.614;1.442;2022-11-23T05:52:47;98758.72;;;9.67;100.00
44934;BME280;30667;43.614;1.442;2022-11-23T05:55:14;98760.03;;;9.69;100.00
44934;BME280;30667;43.614;1.442;2022-11-23T05:57:39;98746.03;;;9.67;100.00
44934;BME280;30667;43.614;1.442;2022-11-23T06:00:06;98750.31;;;9.68;100.00
44934;BME280;30667;43.614;1.442;2022-11-23T06:02:31;98758.41;;;9.68;100.00
44934;BME280;30667;43.614;1.442;2022-11-23T06:04:57;98757.94;;;9.66;100.00
44934;BME280;30667;43.614;1.442;2022-11-23T06:07:22;98761.94;;;9.69;100.00
44934;BME280;30667;43.614;1.442;2022-11-23T06:09:48;98769.50;;;9.67;100.00
44934;BME280;30667;43.614;1.442;2022-11-23T06:12:13;98768.44;;;9.68;100.00
44934;BME280;30667;43.614;1.442;2022-11-23T06:14:38;98775.75;;;9.67;100.00
44934;BME280;30667;43.614;1.442;2022-11-23T06:17:04;98778.63;;;9.71;100.00
44934;BME280;30667;43.614;1.442;2022-11-23T06:19:29;98797.84;;;9.69;100.00
44934;BME280;30667;43.614;1.442;2022-11-23T06:21:56;98806.72;;;9.70;100.00
44934;BME280;30667;43.614;1.442;2022-11-23T06:24:22;98806.72;;;9.70;100.00
44934;BME280;30667;43.614;1.442;2022-11-23T06:26:48;98814.03;;;9.69;100.00
44934;BME280;30667;43.614;1.442;2022-11-23T06:29:13;98823.75;;;9.70;100.00
44934;BME280;30667;43.614;1.442;2022-11-23T06:31:38;98820.94;;;9.75;100.00
44934;BME280;30667;43.614;1.442;2022-11-23T06:34:04;98829.94;;;9.71;100.00
44934;BME280;30667;43.614;1.442;2022-11-23T06:36:29;98843.16;;;9.72;100.00
44934;BME280;30667;43.614;1.442;2022-11-23T06:38:56;98839.66;;;9.72;100.00
44934;BME280;30667;43.614;1.442;2022-11-23T06:41:22;98850.47;;;9.72;100.00
44934;BME280;30667;43.614;1.442;2022-11-23T06:43:48;98847.47;;;9.73;100.00
44934;BME280;30667;43.614;1.442;2022-11-23T06:46:16;98847.16;;;9.75;100.00
44934;BME280;30667;43.614;1.442;2022-11-23T06:48:43;98852.22;;;9.76;100.00
44934;BME280;30667;43.614;1.442;2022-11-23T06:51:09;98872.25;;;9.75;100.00
44934;BME280;30667;43.614;1.442;2022-11-23T06:53:34;98874.16;;;9.75;100.00
44934;BME280;30667;43.614;1.442;2022-11-23T06:56:00;98889.75;;;9.78;100.00
44934;BME280;30667;43.614;1.442;2022-11-23T06:58:26;98888.16;;;9.77;100.00
44934;BME280;30667;43.614;1.442;2022-11-23T07:00:52;98890.28;;;9.80;100.00
44934;BME280;30667;43.614;1.442;2022-11-23T07:03:20;98903.25;;;9.78;100.00
44934;BME280;30667;43.614;1.442;2022-11-23T07:05:46;98908.06;;;9.81;100.00
44934;BME280;30667;43.614;1.442;2022-11-23T07:08:12;98916.47;;;9.79;100.00
44934;BME280;30667;43.614;1.442;2022-11-23T07:10:37;98928.09;;;9.80;100.00
44934;BME280;30667;43.614;1.442;2022-11-23T07:13:04;98938.00;;;9.85;100.00
44934;BME280;30667;43.614;1.442;2022-11-23T07:15:30;98930.69;;;9.85;100.00
44934;BME280;30667;43.614;1.442;2022-11-23T07:17:55;98943.41;;;9.85;100.00
44934;BME280;30667;43.614;1.442;2022-11-23T07:20:21;98943.41;;;9.85;100.00
44934;BME280;30667;43.614;1.442;2022-11-23T07:22:46;98950.00;;;9.92;100.00
44934;BME280;30667;43.614;1.442;2022-11-23T07:25:11;98950.31;;;9.91;100.00
44934;BME280;30667;43.614;1.442;2022-11-23T07:27:42;98953.41;;;9.98;100.00
44934;BME280;30667;43.614;1.442;2022-11-23T07:30:09;98961.53;;;9.98;100.00
44934;BME280;30667;43.614;1.442;2022-11-23T07:32:35;98952.91;;;9.96;100.00
44934;BME280;30667;43.614;1.442;2022-11-23T07:35:00;98960.22;;;9.95;100.00
44934;BME280;30667;43.614;1.442;2022-11-23T07:37:25;98950.81;;;9.93;100.00
44934;BME280;30667;43.614;1.442;2022-11-23T07:39:51;98968.13;;;9.92;100.00
44934;BME280;30667;43.614;1.442;2022-11-23T07:42:18;98976.41;;;9.95;100.00
44934;BME280;30667;43.614;1.442;2022-11-23T07:44:44;98969.44;;;9.94;100.00
44934;BME280;30667;43.614;1.442;2022-11-23T07:47:09;98983.44;;;9.96;100.00
44934;BME280;30667;43.614;1.442;2022-11-23T07:49:34;98988.84;;;9.96;100.00
44934;BME280;30667;43.614;1.442;2022-11-23T07:52:00;98983.13;;;9.98;100.00
44934;BME280;30667;43.614;1.442;2022-11-23T07:54:25;98987.94;;;10.01;100.00
44934;BME280;30667;43.614;1.442;2022-11-23T07:56:51;98987.75;;;9.97;100.00
44934;BME280;30667;43.614;1.442;2022-11-23T07:59:16;98995.03;;;9.97;100.00
44934;BME280;30667;43.614;1.442;2022-11-23T08:01:42;98989.03;;;10.00;100.00
44934;BME280;30667;43.614;1.442;2022-11-23T08:04:07;98999.94;;;9.95;100.00
44934;BME280;30667;43.614;1.442;2022-11-23T08:06:32;99006.66;;;9.97;100.00
44934;BME280;30667;43.614;1.442;2022-11-23T08:08:58;99014.47;;;9.99;100.00
44934;BME280;30667;43.614;1.442;2022-11-23T08:11:23;99016.66;;;9.97;100.00
44934;BME280;30667;43.614;1.442;2022-11-23T08:13:49;99010.34;;;10.02;100.00
44934;BME280;30667;43.614;1.442;2022-11-23T08:16:14;99011.19;;;10.02;100.00
44934;BME280;30667;43.614;1.442;2022-11-23T08:18:40;99011.97;;;10.03;100.00
44934;BME280;30667;43.614;1.442;2022-11-23T08:21:05;99016.88;;;10.00;100.00
44934;BME280;30667;43.614;1.442;2022-11-23T08:23:31;99029.28;;;10.02;100.00
44934;BME280;30667;43.614;1.442;2022-11-23T08:25:56;99030.00;;;10.07;100.00
44934;BME280;30667;43.614;1.442;2022-11-23T08:28:22;99047.59;;;10.05;100.00
44934;BME280;30667;43.614;1.442;2022-11-23T08:30:47;99050.59;;;10.03;100.00
44934;BME280;30667;43.614;1.442;2022-11-23T08:33:13;99038.09;;;10.07;100.00
44934;BME280;30667;43.614;1.442;2022-11-23T08:35:40;99051.81;;;10.11;100.00
44934;BME280;30667;43.614;1.442;2022-11-23T08:38:07;99047.19;;;10.11;100.00
44934;BME280;30667;43.614;1.442;2022-11-23T08:40:34;99045.91;;;10.09;100.00
44934;BME280;30667;43.614;1.442;2022-11-23T08:42:59;99041.78;;;10.11;100.00
44934;BME280;30667;43.614;1.442;2022-11-23T08:45:25;99046.31;;;10.16;100.00
44934;BME280;30667;43.614;1.442;2022-11-23T08:47:51;99047.13;;;10.16;100.00
44934;BME280;30667;43.614;1.442;2022-11-23T08:50:18;99040.59;;;10.17;100.00
44934;BME280;30667;43.614;1.442;2022-11-23T08:52:43;99047.63;;;10.18;100.00
44934;BME280;30667;43.614;1.442;2022-11-23T08:55:09;99041.44;;;10.18;100.00
44934;BME280;30667;43.614;1.442;2022-11-23T08:57:34;99030.31;;;10.20;100.00
44934;BME280;30667;43.614;1.442;2022-11-23T09:00:00;99042.41;;;10.22;100.00
44934;BME280;30667;43.614;1.442;2022-11-23T09:02:25;99033.72;;;10.25;100.00
44934;BME280;30667;43.614;1.442;2022-11-23T09:04:52;99036.91;;;10.27;100.00
44934;BME280;30667;43.614;1.442;2022-11-23T09:07:18;99038.53;;;10.28;100.00
44934;BME280;30667;43.614;1.442;2022-11-23T09:09:43;99048.53;;;10.28;100.00
44934;BME280;30667;43.614;1.442;2022-11-23T09:12:09;99054.25;;;10.26;100.00
44934;BME280;30667;43.614;1.442;2022-11-23T09:14:34;99051.25;;;10.28;100.00
44934;BME280;30667;43.614;1.442;2022-11-23T09:17:00;99057.94;;;10.30;100.00
44934;BME280;30667;43.614;1.442;2022-11-23T09:19:26;99063.59;;;10.34;100.00
44934;BME280;30667;43.614;1.442;2022-11-23T09:21:51;99067.78;;;10.40;100.00
44934;BME280;30667;43.614;1.442;2022-11-23T09:24:18;99070.50;;;10.40;100.00
44934;BME280;30667;43.614;1.442;2022-11-23T09:26:44;99065.00;;;10.45;100.00
44934;BME280;30667;43.614;1.442;2022-11-23T09:29:09;99067.72;;;10.45;100.00
44934;BME280;30667;43.614;1.442;2022-11-23T09:31:35;99067.13;;;10.48;100.00
44934;BME280;30667;43.614;1.442;2022-11-23T09:34:00;99058.69;;;10.50;100.00
44934;BME280;30667;43.614;1.442;2022-11-23T09:36:26;99057.78;;;10.54;100.00
44934;BME280;30667;43.614;1.442;2022-11-23T09:38:52;99059.09;;;10.57;100.00
44934;BME280;30667;43.614;1.442;2022-11-23T09:41:52;99060.88;;;10.62;100.00
44934;BME280;30667;43.614;1.442;2022-11-23T09:52:39;99082.00;;;10.87;100.00
44934;BME280;30667;43.614;1.442;2022-11-23T09:55:16;99081.00;;;10.97;100.00
44934;BME280;30667;43.614;1.442;2022-11-23T09:57:45;99092.59;;;11.12;100.00
44934;BME280;30667;43.614;1.442;2022-11-23T10:02:42;99111.13;;;11.32;100.00
44934;BME280;30667;43.614;1.442;2022-11-23T10:05:22;99107.38;;;11.42;100.00
44934;BME280;30667;43.614;1.442;2022-11-23T10:08:05;99112.28;;;11.54;100.00
44934;BME280;30667;43.614;1.442;2022-11-23T10:10:43;99115.81;;;11.63;100.00
44934;BME280;30667;43.614;1.442;2022-11-23T10:13:42;99122.50;;;11.79;100.00
44934;BME280;30667;43.614;1.442;2022-11-23T10:24:14;99150.38;;;12.16;100.00
44934;BME280;30667;43.614;1.442;2022-11-23T10:26:46;99164.94;;;12.21;100.00
44934;BME280;30667;43.614;1.442;2022-11-23T10:29:32;99182.97;;;12.25;100.00
44934;BME280;30667;43.614;1.442;2022-11-23T10:31:59;99220.22;;;12.33;100.00
44934;BME280;30667;43.614;1.442;2022-11-23T10:34:51;99211.47;;;12.37;100.00
44934;BME280;30667;43.614;1.442;2022-11-23T10:37:21;99221.56;;;12.45;100.00
44934;BME280;30667;43.614;1.442;2022-11-23T10:39:46;99213.13;;;12.46;100.00
44934;BME280;30667;43.614;1.442;2022-11-23T10:42:32;99217.09;;;12.49;100.00
44934;BME280;30667;43.614;1.442;2022-11-23T10:45:00;99222.09;;;12.56;100.00
44934;BME280;30667;43.614;1.442;2022-11-23T10:47:52;99231.84;;;12.57;100.00
44934;BME280;30667;43.614;1.442;2022-11-23T10:50:35;99225.63;;;12.56;100.00
44934;BME280;30667;43.614;1.442;2022-11-23T10:53:22;99236.59;;;12.51;100.00
44934;BME280;30667;43.614;1.442;2022-11-23T10:55:53;99233.69;;;12.47;100.00
44934;BME280;30667;43.614;1.442;2022-11-23T10:58:33;99231.66;;;12.53;100.00
44934;BME280;30667;43.614;1.442;2022-11-23T11:01:12;99232.00;;;12.60;100.00
44934;BME280;30667;43.614;1.442;2022-11-23T11:03:38;99218.50;;;12.69;100.00
44934;BME280;30667;43.614;1.442;2022-11-23T11:06:04;99216.59;;;12.69;100.00
44934;BME280;30667;43.614;1.442;2022-11-23T11:08:32;99209.44;;;12.74;100.00
44934;BME280;30667;43.614;1.442;2022-11-23T11:11:20;99199.75;;;12.81;100.00
44934;BME280;30667;43.614;1.442;2022-11-23T11:13:48;99204.19;;;12.86;100.00
44934;BME280;30667;43.614;1.442;2022-11-23T11:16:33;99195.94;;;12.91;100.00
44934;BME280;30667;43.614;1.442;2022-11-23T11:19:19;99196.78;;;13.00;100.00
44934;BME280;30667;43.614;1.442;2022-11-23T11:21:45;99197.59;;;13.09;100.00
44934;BME280;30667;43.614;1.442;2022-11-23T11:24:17;99213.94;;;13.18;100.00
44934;BME280;30667;43.614;1.442;2022-11-23T11:26:52;99211.84;;;13.24;100.00
44934;BME280;30667;43.614;1.442;2022-11-23T11:29:46;99216.03;;;13.30;100.00
44934;BME280;30667;43.614;1.442;2022-11-23T11:32:33;99215.59;;;13.37;100.00
44934;BME280;30667;43.614;1.442;2022-11-23T11:35:20;99209.38;;;13.36;100.00
44934;BME280;30667;43.614;1.442;2022-11-23T11:37:49;99227.28;;;13.37;100.00
44934;BME280;30667;43.614;1.442;2022-11-23T11:43:29;99236.28;;;13.47;100.00
44934;BME280;30667;43.614;1.442;2022-11-23T11:46:03;99242.88;;;13.32;100.00
44934;BME280;30667;43.614;1.442;2022-11-23T11:48:37;99251.19;;;13.26;100.00
44934;BME280;30667;43.614;1.442;2022-11-23T11:51:09;99263.97;;;13.26;100.00
44934;BME280;30667;43.614;1.442;2022-11-23T11:54:00;99266.75;;;13.35;100.00
44934;BME280;30667;43.614;1.442;2022-11-23T12:00:09;99253.63;;;13.37;100.00
44934;BME280;30667;43.614;1.442;2022-11-23T12:02:26;99250.44;;;13.35;100.00
44934;BME280;30667;43.614;1.442;2022-11-23T12:05:07;99267.06;;;13.33;100.00
44934;BME280;30667;43.614;1.442;2022-11-23T12:13:22;99266.16;;;13.47;100.00
44934;BME280;30667;43.614;1.442;2022-11-23T12:21:42;99288.06;;;13.50;100.00
44934;BME280;30667;43.614;1.442;2022-11-23T12:27:08;99304.06;;;13.60;100.00
44934;BME280;30667;43.614;1.442;2022-11-23T12:30:03;99291.63;;;13.59;100.00
44934;BME280;30667;43.614;1.442;2022-11-23T12:38:24;99287.16;;;13.81;100.00
44934;BME280;30667;43.614;1.442;2022-11-23T12:49:53;99312.47;;;13.99;100.00
44934;BME280;30667;43.614;1.442;2022-11-23T12:58:04;99312.81;;;14.06;100.00
44934;BME280;30667;43.614;1.442;2022-11-23T13:00:39;99317.28;;;14.02;100.00
44934;BME280;30667;43.614;1.442;2022-11-23T13:06:11;99331.97;;;13.92;100.00
44934;BME280;30667;43.614;1.442;2022-11-23T13:14:30;99346.66;;;13.74;100.00
44934;BME280;30667;43.614;1.442;2022-11-23T13:20:08;99344.25;;;13.72;100.00
44934;BME280;30667;43.614;1.442;2022-11-23T13:22:37;99341.66;;;13.67;100.00
44934;BME280;30667;43.614;1.442;2022-11-23T13:30:26;99355.25;;;13.67;100.00
44934;BME280;30667;43.614;1.442;2022-11-23T13:40:44;99389.16;;;13.61;100.00
44934;BME280;30667;43.614;1.442;2022-11-23T13:43:28;99392.81;;;13.65;100.00
44934;BME280;30667;43.614;1.442;2022-11-23T13:48:52;99400.84;;;13.70;100.00
44934;BME280;30667;43.614;1.442;2022-11-23T13:51:24;99407.56;;;13.73;100.00
44934;BME280;30667;43.614;1.442;2022-11-23T13:53:53;99415.09;;;13.76;100.00
44934;BME280;30667;43.614;1.442;2022-11-23T13:56:40;99408.06;;;13.75;100.00
44934;BME280;30667;43.614;1.442;2022-11-23T14:04:30;99412.38;;;13.76;100.00
44934;BME280;30667;43.614;1.442;2022-11-23T14:10:03;99418.28;;;13.69;100.00
44934;BME280;30667;43.614;1.442;2022-11-23T14:12:46;99425.94;;;13.67;100.00
44934;BME280;30667;43.614;1.442;2022-11-23T14:15:32;99422.09;;;13.68;100.00
44934;BME280;30667;43.614;1.442;2022-11-23T14:18:07;99422.59;;;13.70;100.00
44934;BME280;30667;43.614;1.442;2022-11-23T14:24:06;99450.00;;;13.83;100.00
44934;BME280;30667;43.614;1.442;2022-11-23T14:35:24;99466.00;;;13.84;100.00
44934;BME280;30667;43.614;1.442;2022-11-23T14:41:07;99478.34;;;13.90;100.00
44934;BME280;30667;43.614;1.442;2022-11-23T14:43:35;99477.88;;;13.88;100.00
44934;BME280;30667;43.614;1.442;2022-11-23T14:46:04;99485.03;;;13.84;100.00
44934;BME280;30667;43.614;1.442;2022-11-23T14:48:34;99492.50;;;13.78;100.00
44934;BME280;30667;43.614;1.442;2022-11-23T14:51:12;99489.44;;;13.71;100.00
44934;BME280;30667;43.614;1.442;2022-11-23T14:53:45;99499.53;;;13.71;100.00
44934;BME280;30667;43.614;1.442;2022-11-23T14:56:36;99505.75;;;13.71;100.00
44934;BME280;30667;43.614;1.442;2022-11-23T14:59:29;99511.50;;;13.70;100.00
44934;BME280;30667;43.614;1.442;2022-11-23T15:02:01;99515.31;;;13.69;100.00